createdAt,value
2018-09-13T00:00:20.010Z,51.19
2018-09-13T00:02:48.927Z,51.24
2018-09-13T00:05:17.240Z,51.39
2018-09-13T00:07:45.562Z,51.46
2018-09-13T00:10:13.882Z,51.43
2018-09-13T00:12:42.206Z,51.52
2018-09-13T00:15:09.944Z,51.68
2018-09-13T00:17:38.846Z,51.70
2018-09-13T00:20:06.586Z,51.70
2018-09-13T00:22:34.901Z,51.61
2018-09-13T00:25:03.933Z,51.75
2018-09-13T00:27:32.244Z,51.90
2018-09-13T00:30:00.568Z,52.03
2018-09-13T00:32:28.889Z,52.03
2018-09-13T00:34:57.213Z,51.82
2018-09-13T00:37:25.536Z,52.03
2018-09-13T00:39:53.277Z,52.04
2018-09-13T00:42:22.173Z,52.20
2018-09-13T00:44:49.913Z,52.10
2018-09-13T00:47:18.810Z,52.08
2018-09-13T00:49:47.141Z,52.17
2018-09-13T00:52:14.884Z,52.30
2018-09-13T00:54:43.197Z,52.37
2018-09-13T00:57:12.093Z,52.30
2018-09-13T00:59:40.422Z,52.51
2018-09-13T01:02:08.157Z,52.56
2018-09-13T01:04:37.379Z,52.53
2018-09-13T01:07:05.702Z,52.65
2018-09-13T01:09:34.023Z,52.54
2018-09-13T01:12:02.336Z,52.55
2018-09-13T01:14:30.685Z,52.64
2018-09-13T01:16:59.006Z,52.73
2018-09-13T01:19:27.371Z,52.71
2018-09-13T01:21:55.114Z,52.79
2018-09-13T01:24:24.022Z,52.90
2018-09-13T01:26:52.350Z,53.03
2018-09-13T01:29:20.120Z,52.85
2018-09-13T01:31:48.988Z,53.21
2018-09-13T01:34:17.311Z,52.88
2018-09-13T01:36:45.642Z,53.02
2018-09-13T01:39:13.948Z,52.98
2018-09-13T01:41:41.697Z,52.92
2018-09-13T01:44:10.594Z,53.00
2018-09-13T01:46:38.912Z,53.22
2018-09-13T01:49:07.236Z,52.99
2018-09-13T01:51:35.550Z,53.34
2018-09-13T01:54:03.871Z,53.17
2018-09-13T01:56:32.189Z,52.93
2018-09-13T01:58:59.926Z,53.02
2018-09-13T02:01:28.844Z,53.14
2018-09-13T02:03:57.165Z,53.20
2018-09-13T02:06:24.905Z,53.12
2018-09-13T02:08:53.800Z,53.23
2018-09-13T02:11:22.122Z,53.27
2018-09-13T02:13:49.859Z,53.24
2018-09-13T02:16:18.758Z,53.31
2018-09-13T02:18:46.503Z,53.29
2018-09-13T02:21:15.398Z,53.52
2018-09-13T02:23:43.195Z,53.46
2018-09-13T02:26:12.034Z,53.43
2018-09-13T02:28:39.776Z,53.38
2018-09-13T02:31:08.675Z,53.45
2018-09-13T02:33:36.480Z,53.36
2018-09-13T02:36:05.377Z,53.35
2018-09-13T02:38:33.807Z,53.41
2018-09-13T02:41:02.131Z,53.49
2018-09-13T02:43:29.872Z,53.45
2018-09-13T02:45:58.775Z,53.56
2018-09-13T02:48:27.095Z,53.48
2018-09-13T02:50:55.652Z,53.52
2018-09-13T02:53:24.348Z,53.53
2018-09-13T02:55:52.671Z,53.67
2018-09-13T02:58:20.411Z,53.56
2018-09-13T03:00:49.321Z,53.68
2018-09-13T03:03:17.638Z,53.56
2018-09-13T03:05:45.956Z,53.71
2018-09-13T03:08:13.701Z,53.66
2018-09-13T03:10:42.593Z,53.67
2018-09-13T03:13:10.914Z,53.67
2018-09-13T03:15:39.236Z,53.63
2018-09-13T03:18:07.553Z,53.75
2018-09-13T03:20:35.880Z,53.68
2018-09-13T03:23:03.621Z,53.69
2018-09-13T03:25:32.519Z,53.69
2018-09-13T03:28:00.837Z,53.60
2018-09-13T03:30:29.167Z,53.97
2018-09-13T03:32:56.908Z,53.83
2018-09-13T03:35:26.164Z,53.84
2018-09-13T03:37:54.488Z,53.79
2018-09-13T03:40:22.228Z,53.82
2018-09-13T03:42:51.127Z,53.71
2018-09-13T03:45:19.446Z,53.82
2018-09-13T03:47:48.169Z,53.89
2018-09-13T03:50:16.499Z,53.84
2018-09-13T03:52:44.813Z,53.88
2018-09-13T03:55:13.133Z,53.81
2018-09-13T03:57:41.451Z,53.90
2018-09-13T04:00:09.771Z,53.93
2018-09-13T04:02:38.094Z,53.95
2018-09-13T04:05:06.405Z,53.86
2018-09-13T04:07:34.720Z,54.05
2018-09-13T04:10:03.045Z,54.39
2018-09-13T04:12:31.366Z,54.42
2018-09-13T04:14:59.695Z,54.55
2018-09-13T04:17:28.012Z,54.26
2018-09-13T04:19:56.330Z,54.64
2018-09-13T04:22:24.065Z,54.53
2018-09-13T04:24:52.962Z,54.40
2018-09-13T04:27:21.289Z,54.49
2018-09-13T04:29:49.605Z,54.37
2018-09-13T04:32:17.348Z,54.47
2018-09-13T04:34:46.245Z,54.67
2018-09-13T04:37:14.573Z,54.02
2018-09-13T04:39:42.545Z,53.97
2018-09-13T04:42:11.214Z,53.01
2018-09-13T04:44:39.538Z,52.73
2018-09-13T04:47:08.162Z,53.17
2018-09-13T04:49:36.482Z,53.35
2018-09-13T04:52:04.811Z,55.68
2018-09-13T04:54:33.132Z,53.08
2018-09-13T04:57:00.877Z,53.15
2018-09-13T04:59:29.217Z,52.21
2018-09-13T05:01:58.129Z,51.69
2018-09-13T05:04:26.461Z,55.46
2018-09-13T05:06:54.364Z,52.95
2018-09-13T05:09:22.722Z,53.42
2018-09-13T05:11:51.640Z,51.01
2018-09-13T05:14:19.977Z,51.05
2018-09-13T05:16:47.761Z,51.16
2018-09-13T05:19:16.089Z,50.78
2018-09-13T05:21:44.429Z,51.25
2018-09-13T05:24:12.820Z,50.41
2018-09-13T05:26:41.106Z,51.37
2018-09-13T05:29:10.021Z,50.05
2018-09-13T05:31:38.397Z,49.68
2018-09-13T05:34:06.690Z,49.76
2018-09-13T05:36:34.441Z,50.39
2018-09-13T05:39:10.161Z,50.25
2018-09-13T05:41:39.083Z,50.25
2018-09-13T05:44:07.406Z,50.55
2018-09-13T05:46:35.740Z,50.39
2018-09-13T05:49:03.494Z,50.90
2018-09-13T05:51:31.829Z,50.64
2018-09-13T05:54:00.742Z,50.41
2018-09-13T05:56:28.647Z,50.51
2018-09-13T05:58:57.418Z,50.37
2018-09-13T06:01:25.801Z,50.26
2018-09-13T06:03:54.067Z,50.36
2018-09-13T06:06:22.393Z,50.50
2018-09-13T06:08:50.718Z,50.02
2018-09-13T06:11:18.516Z,50.21
2018-09-13T06:13:47.363Z,50.00
2018-09-13T06:16:15.691Z,49.99
2018-09-13T06:18:44.031Z,50.87
2018-09-13T06:21:12.379Z,51.16
2018-09-13T06:23:40.702Z,50.84
2018-09-13T06:26:09.041Z,50.54
2018-09-13T06:28:36.824Z,50.58
2018-09-13T06:31:05.727Z,50.54
2018-09-13T06:33:33.475Z,50.60
2018-09-13T06:36:02.377Z,50.66
2018-09-13T06:38:30.703Z,50.67
2018-09-13T06:40:59.030Z,50.61
2018-09-13T06:43:26.776Z,50.84
2018-09-13T06:45:55.674Z,50.81
2018-09-13T06:48:24.054Z,50.92
2018-09-13T06:50:51.742Z,50.78
2018-09-13T06:53:20.643Z,51.14
2018-09-13T06:55:48.962Z,51.06
2018-09-13T06:58:17.285Z,51.14
2018-09-13T07:00:45.037Z,50.96
2018-09-13T07:03:13.938Z,51.06
2018-09-13T07:05:41.680Z,51.04
2018-09-13T07:08:10.007Z,51.05
2018-09-13T07:10:38.331Z,50.95
2018-09-13T07:13:07.256Z,50.94
2018-09-13T07:15:35.581Z,50.95
2018-09-13T07:18:03.434Z,50.69
2018-09-13T07:20:31.765Z,50.72
2018-09-13T07:23:00.682Z,50.63
2018-09-13T07:25:28.431Z,50.68
2018-09-13T07:27:56.765Z,50.40
2018-09-13T07:30:25.679Z,50.44
2018-09-13T07:32:53.933Z,50.26
2018-09-13T07:35:22.258Z,50.14
2018-09-13T07:37:51.172Z,50.08
2018-09-13T07:40:18.929Z,49.89
2018-09-13T07:42:47.299Z,49.91
2018-09-13T07:45:16.179Z,49.84
2018-09-13T07:47:44.505Z,49.87
2018-09-13T07:50:12.258Z,49.68
2018-09-13T07:52:40.585Z,49.71
2018-09-13T07:55:08.912Z,49.40
2018-09-13T07:57:37.831Z,49.59
2018-09-13T08:00:06.149Z,49.43
2018-09-13T08:02:33.892Z,49.30
2018-09-13T08:05:02.891Z,49.35
2018-09-13T08:07:31.145Z,49.26
2018-09-13T08:09:59.480Z,49.29
2018-09-13T08:12:27.794Z,49.34
2018-09-13T08:14:56.124Z,49.32
2018-09-13T08:17:24.441Z,49.35
2018-09-13T08:19:52.768Z,49.20
2018-09-13T08:22:21.092Z,49.18
2018-09-13T08:24:49.415Z,49.06
2018-09-13T08:27:17.750Z,49.40
2018-09-13T08:29:46.085Z,49.37
2018-09-13T08:32:13.833Z,49.45
2018-09-13T08:34:42.246Z,49.35
2018-09-13T08:37:11.067Z,49.41
2018-09-13T08:39:39.408Z,49.32
2018-09-13T08:42:07.724Z,49.17
2018-09-13T08:44:36.043Z,49.14
2018-09-13T08:47:04.391Z,49.02
2018-09-13T08:49:32.694Z,48.90
2018-09-13T08:52:01.080Z,48.77
2018-09-13T08:54:29.351Z,49.03
2018-09-13T08:56:58.067Z,48.99
2018-09-13T08:59:26.398Z,48.96
2018-09-13T09:01:54.141Z,49.03
2018-09-13T09:04:22.468Z,48.83
2018-09-13T09:06:51.371Z,48.69
2018-09-13T09:09:19.689Z,48.73
2018-09-13T09:11:48.022Z,48.64
2018-09-13T09:14:15.757Z,48.68
2018-09-13T09:16:44.657Z,48.79
2018-09-13T09:19:12.984Z,48.73
2018-09-13T09:21:41.314Z,48.71
2018-09-13T09:24:09.696Z,48.63
2018-09-13T09:26:38.242Z,48.54
2018-09-13T09:29:06.570Z,48.54
2018-09-13T09:31:34.884Z,48.58
2018-09-13T09:34:02.635Z,48.45
2018-09-13T09:36:30.972Z,48.59
2018-09-13T09:38:59.299Z,48.53
2018-09-13T09:41:27.617Z,48.59
2018-09-13T09:43:56.512Z,48.46
2018-09-13T09:46:24.247Z,48.42
2018-09-13T09:48:52.568Z,48.14
2018-09-13T09:51:21.475Z,48.19
2018-09-13T09:53:49.799Z,48.00
2018-09-13T09:56:18.190Z,47.93
2018-09-13T09:58:46.445Z,47.56
2018-09-13T10:01:14.767Z,47.72
2018-09-13T10:03:43.088Z,47.59
2018-09-13T10:06:11.401Z,47.66
2018-09-13T10:08:39.681Z,47.68
2018-09-13T10:11:08.577Z,47.59
2018-09-13T10:13:36.921Z,47.58
2018-09-13T10:16:07.062Z,47.53
2018-09-13T10:18:37.279Z,47.49
2018-09-13T10:21:11.631Z,47.50
2018-09-13T10:23:45.878Z,47.57
2018-09-13T10:26:18.145Z,47.55
2018-09-13T10:28:52.068Z,47.73
2018-09-13T10:31:20.392Z,47.58
2018-09-13T10:33:54.362Z,47.67
2018-09-13T10:36:22.683Z,47.48
2018-09-13T10:38:55.972Z,47.16
2018-09-13T10:41:25.203Z,47.31
2018-09-13T10:43:59.237Z,47.20
2018-09-13T10:46:26.975Z,46.92
2018-09-13T10:48:55.884Z,46.79
2018-09-13T10:51:24.201Z,46.88
2018-09-13T10:53:52.517Z,46.95
2018-09-13T10:56:20.833Z,46.88
2018-09-13T10:58:49.153Z,46.57
2018-09-13T11:01:17.478Z,46.65
2018-09-13T11:03:45.218Z,46.61
2018-09-13T11:06:14.116Z,46.61
2018-09-13T11:08:42.435Z,46.61
2018-09-13T11:11:10.765Z,46.71
2018-09-13T11:13:39.071Z,46.73
2018-09-13T11:16:07.392Z,46.74
2018-09-13T11:18:35.711Z,46.88
2018-09-13T11:21:03.452Z,46.81
2018-09-13T11:23:32.349Z,46.61
2018-09-13T11:26:00.676Z,46.57
2018-09-13T11:28:29.009Z,46.51
2018-09-13T11:30:57.327Z,46.56
2018-09-13T11:33:25.649Z,46.59
2018-09-13T11:35:53.964Z,46.57
2018-09-13T11:38:21.710Z,46.53
2018-09-13T11:40:50.773Z,46.37
2018-09-13T11:43:18.924Z,46.42
2018-09-13T11:45:46.672Z,46.43
2018-09-13T11:48:15.577Z,46.33
2018-09-13T11:50:43.677Z,46.12
2018-09-13T11:53:12.573Z,46.17
2018-09-13T11:55:40.743Z,46.09
2018-09-13T11:58:09.643Z,46.15
2018-09-13T12:00:37.990Z,45.92
2018-09-13T12:03:06.311Z,46.07
2018-09-13T12:05:34.049Z,45.87
2018-09-13T12:08:02.374Z,45.50
2018-09-13T12:10:31.269Z,45.37
2018-09-13T12:12:59.593Z,45.39
2018-09-13T12:15:27.909Z,45.34
2018-09-13T12:17:56.331Z,45.40
2018-09-13T12:20:23.974Z,45.22
2018-09-13T12:22:52.300Z,45.15
2018-09-13T12:25:21.198Z,45.05
2018-09-13T12:27:49.533Z,44.53
2018-09-13T12:30:18.342Z,44.33
2018-09-13T12:32:46.078Z,44.66
2018-09-13T12:35:14.978Z,44.55
2018-09-13T12:37:43.313Z,44.53
2018-09-13T12:40:11.630Z,44.52
2018-09-13T12:42:39.951Z,44.56
2018-09-13T12:45:07.695Z,44.58
2018-09-13T12:47:36.589Z,44.62
2018-09-13T12:50:04.912Z,44.92
2018-09-13T12:52:33.233Z,44.21
2018-09-13T12:55:01.572Z,44.25
2018-09-13T12:57:29.310Z,44.19
2018-09-13T12:59:58.209Z,43.49
2018-09-13T13:02:27.117Z,44.02
2018-09-13T13:04:55.441Z,44.25
2018-09-13T13:07:23.758Z,44.42
2018-09-13T13:09:52.078Z,43.86
2018-09-13T13:12:20.411Z,44.05
2018-09-13T13:14:48.828Z,43.71
2018-09-13T13:17:17.144Z,43.61
2018-09-13T13:19:45.463Z,43.58
2018-09-13T13:22:13.785Z,43.73
2018-09-13T13:24:41.756Z,43.37
2018-09-13T13:27:11.062Z,42.66
2018-09-13T13:29:39.317Z,42.68
2018-09-13T13:32:07.643Z,42.91
2018-09-13T13:34:35.382Z,42.99
2018-09-13T13:37:04.281Z,43.13
2018-09-13T13:39:32.836Z,42.52
2018-09-13T13:42:01.156Z,42.71
2018-09-13T13:44:29.771Z,43.24
2018-09-13T13:46:58.094Z,42.70
2018-09-13T13:49:26.467Z,42.53
2018-09-13T13:51:54.723Z,43.40
2018-09-13T13:54:23.051Z,43.78
2018-09-13T13:56:51.372Z,43.62
2018-09-13T13:59:19.704Z,43.63
2018-09-13T14:01:48.034Z,43.85
2018-09-13T14:04:16.353Z,43.94
2018-09-13T14:06:44.804Z,44.01
2018-09-13T14:09:13.124Z,44.42
2018-09-13T14:11:41.445Z,44.66
2018-09-13T14:14:09.767Z,44.76
2018-09-13T14:16:38.078Z,44.80
2018-09-13T14:19:06.408Z,44.92
2018-09-13T14:21:34.510Z,44.35
2018-09-13T14:24:03.473Z,44.18
2018-09-13T14:26:31.802Z,44.13
2018-09-13T14:29:00.122Z,44.05
2018-09-13T14:31:28.796Z,43.94
2018-09-13T14:33:57.306Z,43.93
2018-09-13T14:36:25.987Z,43.97
2018-09-13T14:38:54.305Z,43.75
2018-09-13T14:41:22.659Z,43.77
2018-09-13T14:43:50.948Z,43.80
2018-09-13T14:46:19.762Z,43.72
2018-09-13T14:48:48.085Z,43.68
2018-09-13T14:51:15.828Z,43.37
2018-09-13T14:53:44.726Z,43.52
2018-09-13T14:56:13.089Z,43.45
2018-09-13T14:58:41.369Z,43.42
2018-09-13T15:01:09.150Z,43.29
2018-09-13T15:03:38.013Z,43.35
2018-09-13T15:06:05.757Z,43.01
2018-09-13T15:08:34.809Z,42.87
2018-09-13T15:11:02.548Z,42.02
2018-09-13T15:13:31.353Z,38.80
2018-09-13T15:16:00.253Z,37.31
2018-09-13T15:18:28.585Z,36.81
2018-09-13T15:20:56.363Z,36.44
2018-09-13T15:23:25.523Z,35.84
2018-09-13T15:25:53.325Z,35.47
2018-09-13T15:28:21.793Z,35.00
2018-09-13T15:30:50.572Z,35.26
2018-09-13T15:33:18.895Z,34.87
2018-09-13T15:35:47.797Z,34.99
2018-09-13T15:38:16.113Z,35.15
2018-09-13T15:40:44.434Z,35.44
2018-09-13T15:43:12.361Z,36.38
2018-09-13T15:45:41.114Z,39.06
2018-09-13T15:48:10.009Z,40.39
2018-09-13T15:50:38.430Z,41.12
2018-09-13T15:53:06.752Z,41.34
2018-09-13T15:55:35.571Z,41.75
2018-09-13T15:58:03.894Z,42.02
2018-09-13T16:00:32.213Z,42.24
2018-09-13T16:03:00.825Z,42.69
2018-09-13T16:05:29.138Z,42.84
2018-09-13T16:07:57.457Z,42.97
2018-09-13T16:10:25.209Z,43.28
2018-09-13T16:12:54.213Z,43.41
2018-09-13T16:15:22.437Z,43.57
2018-09-13T16:17:50.754Z,43.79
2018-09-13T16:20:19.072Z,44.10
2018-09-13T16:22:47.396Z,44.30
2018-09-13T16:25:15.722Z,44.35
2018-09-13T16:27:44.448Z,44.45
2018-09-13T16:30:13.032Z,44.82
2018-09-13T16:32:41.354Z,44.77
2018-09-13T16:35:09.796Z,44.81
2018-09-13T16:37:37.999Z,45.02
2018-09-13T16:40:06.320Z,45.10
2018-09-13T16:42:39.689Z,45.36
2018-09-13T16:45:08.601Z,45.60
2018-09-13T16:47:42.753Z,45.87
2018-09-13T16:50:10.401Z,46.12
2018-09-13T16:52:39.301Z,46.54
2018-09-13T16:55:07.634Z,46.69
2018-09-13T16:57:35.973Z,47.24
2018-09-13T17:00:04.316Z,47.71
2018-09-13T17:02:32.070Z,47.92
2018-09-13T17:05:00.984Z,48.18
2018-09-13T17:07:29.314Z,48.96
2018-09-13T17:09:57.637Z,49.22
2018-09-13T17:12:27.203Z,49.69
2018-09-13T17:14:55.934Z,49.73
2018-09-13T17:17:24.268Z,50.26
2018-09-13T17:19:53.281Z,50.49
2018-09-13T17:22:21.680Z,51.32
2018-09-13T17:24:49.440Z,51.94
2018-09-13T17:27:18.433Z,52.47
2018-09-13T17:29:46.764Z,52.57
2018-09-13T17:32:16.787Z,52.32
2018-09-13T17:34:45.116Z,51.98
2018-09-13T17:37:13.449Z,51.66
2018-09-13T17:39:41.776Z,51.52
2018-09-13T17:42:10.206Z,51.65
2018-09-13T17:44:38.585Z,51.51
2018-09-13T17:47:06.918Z,51.45
2018-09-13T17:49:35.258Z,51.50
2018-09-13T17:52:03.601Z,51.34
2018-09-13T17:54:31.929Z,51.29
2018-09-13T17:57:00.268Z,51.23
2018-09-13T17:59:28.738Z,51.08
2018-09-13T18:01:57.068Z,51.17
2018-09-13T18:04:25.511Z,50.91
2018-09-13T18:06:54.519Z,50.89
2018-09-13T18:09:23.640Z,50.80
2018-09-13T18:11:52.105Z,50.71
2018-09-13T18:14:20.428Z,50.76
2018-09-13T18:16:48.835Z,50.76
2018-09-13T18:19:17.165Z,50.43
2018-09-13T18:21:46.182Z,50.33
2018-09-13T18:24:15.085Z,50.23
2018-09-13T18:26:43.413Z,50.47
2018-09-13T18:29:11.821Z,50.29
2018-09-13T18:31:40.211Z,50.38
2018-09-13T18:34:08.542Z,50.31
2018-09-13T18:36:39.411Z,45.39
2018-09-13T18:39:07.751Z,45.73
2018-09-13T18:41:36.081Z,45.67
2018-09-13T18:44:05.427Z,45.82
2018-09-13T18:46:33.844Z,46.52
2018-09-13T18:49:02.022Z,48.03
2018-09-13T18:51:30.690Z,47.84
2018-09-13T18:53:59.080Z,47.08
2018-09-13T18:56:28.200Z,46.27
2018-09-13T18:58:56.539Z,46.50
2018-09-13T19:01:24.875Z,45.99
2018-09-13T19:03:53.835Z,44.96
2018-09-13T19:06:22.170Z,45.21
2018-09-13T19:08:50.595Z,45.25
2018-09-13T19:11:18.463Z,45.31
2018-09-13T19:13:47.305Z,45.55
2018-09-13T19:16:15.225Z,45.22
2018-09-13T19:18:44.620Z,45.98
2018-09-13T19:21:12.946Z,46.19
2018-09-13T19:23:41.311Z,46.28
2018-09-13T19:26:09.648Z,46.53
2018-09-13T19:28:37.979Z,46.67
2018-09-13T19:31:05.798Z,46.99
2018-09-13T19:33:34.653Z,47.40
2018-09-13T19:36:02.992Z,47.55
2018-09-13T19:38:31.376Z,47.78
2018-09-13T19:40:59.658Z,47.88
2018-09-13T19:43:27.405Z,48.08
2018-09-13T19:45:55.807Z,45.95
2018-09-13T19:48:24.658Z,46.82
2018-09-13T19:50:53.063Z,47.68
2018-09-13T19:53:21.618Z,47.96
2018-09-13T19:55:49.366Z,47.94
2018-09-13T19:58:19.194Z,47.69
2018-09-13T20:00:47.532Z,47.61
2018-09-13T20:03:15.856Z,47.76
2018-09-13T20:05:43.597Z,48.04
2018-09-13T20:08:11.913Z,48.21
2018-09-13T20:10:40.558Z,48.56
2018-09-13T20:13:09.618Z,48.81
2018-09-13T20:15:37.373Z,48.83
2018-09-13T20:18:06.303Z,48.84
2018-09-13T20:20:34.081Z,46.52
2018-09-13T20:23:03.046Z,49.28
2018-09-13T20:25:30.758Z,49.64
2018-09-13T20:27:59.658Z,49.39
2018-09-13T20:30:27.408Z,49.55
2018-09-13T20:32:55.779Z,49.76
2018-09-13T20:35:24.893Z,49.84
2018-09-13T20:37:53.794Z,49.85
2018-09-13T20:40:21.544Z,49.74
2018-09-13T20:42:50.636Z,49.68
2018-09-13T20:45:20.376Z,49.34
2018-09-13T20:47:48.125Z,49.81
2018-09-13T20:50:16.845Z,49.92
2018-09-13T20:52:45.739Z,50.26
2018-09-13T20:55:14.056Z,50.64
2018-09-13T20:57:42.372Z,50.62
2018-09-13T21:00:10.753Z,50.14
2018-09-13T21:02:39.081Z,50.24
2018-09-13T21:05:06.860Z,50.17
2018-09-13T21:07:35.757Z,50.02
2018-09-13T21:10:04.150Z,49.85
2018-09-13T21:12:33.108Z,49.99
2018-09-13T21:15:01.442Z,49.73
2018-09-13T21:17:30.627Z,49.50
2018-09-13T21:19:58.967Z,48.97
2018-09-13T21:22:27.302Z,49.13
2018-09-13T21:24:55.659Z,48.25
2018-09-13T21:27:23.997Z,47.82
2018-09-13T21:29:52.336Z,47.92
2018-09-13T21:32:20.659Z,48.05
2018-09-13T21:34:48.420Z,48.03
2018-09-13T21:37:16.745Z,48.14
2018-09-13T21:39:45.077Z,47.98
2018-09-13T21:42:13.407Z,48.00
2018-09-13T21:44:42.004Z,46.54
2018-09-13T21:47:10.204Z,45.81
2018-09-13T21:49:38.980Z,45.87
2018-09-13T21:52:06.733Z,45.83
2018-09-13T21:54:35.064Z,46.11
2018-09-13T21:57:04.016Z,46.18
2018-09-13T21:59:31.765Z,46.46
2018-09-13T22:02:00.097Z,46.40
2018-09-13T22:04:34.394Z,46.56
2018-09-13T22:07:02.731Z,46.62
2018-09-13T22:09:31.065Z,46.72
2018-09-13T22:11:58.819Z,46.78
2018-09-13T22:14:27.733Z,46.76
2018-09-13T22:16:55.472Z,46.73
2018-09-13T22:19:24.389Z,46.78
2018-09-13T22:21:52.137Z,46.82
2018-09-13T22:24:21.049Z,46.79
2018-09-13T22:26:48.847Z,46.71
2018-09-13T22:29:17.133Z,46.69
2018-09-13T22:31:45.464Z,46.55
2018-09-13T22:34:14.407Z,46.86
2018-09-13T22:36:42.738Z,46.63
2018-09-13T22:39:10.493Z,46.29
2018-09-13T22:41:38.826Z,46.56
2018-09-13T22:44:07.153Z,46.44
2018-09-13T22:46:36.066Z,46.39
2018-09-13T22:49:03.812Z,46.15
2018-09-13T22:51:32.145Z,46.38
2018-09-13T22:54:01.234Z,46.15
2018-09-13T22:56:28.972Z,46.22
2018-09-13T22:58:57.304Z,46.05
2018-09-13T23:01:25.939Z,46.27
2018-09-13T23:03:53.969Z,46.41
2018-09-13T23:06:22.304Z,46.06
2018-09-13T23:08:50.633Z,46.43
2018-09-13T23:11:18.968Z,46.29
2018-09-13T23:13:47.636Z,46.06
2018-09-13T23:16:16.221Z,46.34
2018-09-13T23:18:43.964Z,46.19
2018-09-13T23:21:12.298Z,46.36
2018-09-13T23:23:41.211Z,46.34
2018-09-13T23:26:09.536Z,46.48
2018-09-13T23:28:37.293Z,46.39
2018-09-13T23:31:06.205Z,46.23
2018-09-13T23:33:33.955Z,46.32
2018-09-13T23:36:02.874Z,46.33
2018-09-13T23:38:30.621Z,46.36
2018-09-13T23:40:58.957Z,46.30
2018-09-13T23:43:27.290Z,46.41
2018-09-13T23:45:56.197Z,46.49
2018-09-13T23:48:23.948Z,46.42
2018-09-13T23:50:52.277Z,46.44
2018-09-13T23:53:21.190Z,46.48
2018-09-13T23:55:49.531Z,46.35
2018-09-13T23:58:17.874Z,46.39
